Time;durP1;ratioP1;P1;durP2;ratioP2;P2;SDS_P1;SDS_P2;PMS_P1;PMS_P2;Temp;Humidity;BMP_temperature;BMP_pressure;BME280_temperature;BME280_humidity;BME280_pressure;Samples;Min_cycle;Max_cycle;Signal;HPM_P1;HPM_P2
2021/08/18 00:01:02;;;;;;;19.10;7.40;;;;;;;13.01;77.39;98867.50;124942;1093;64421;-84
2021/08/18 00:03:31;;;;;;;18.97;7.83;;;;;;;13.00;77.23;98870.28;124952;1093;64370;-84
2021/08/18 00:05:58;;;;;;;18.73;7.30;;;;;;;12.95;77.33;98866.16;124972;1093;64468;-84
2021/08/18 00:08:26;;;;;;;16.13;6.90;;;;;;;12.96;77.31;98869.69;124825;1093;64343;-83
2021/08/18 00:10:53;;;;;;;18.43;6.97;;;;;;;12.97;77.45;98871.38;124849;1093;64284;-84
2021/08/18 00:13:23;;;;;;;16.53;6.87;;;;;;;13.01;77.35;98878.20;124906;1093;64319;-83
2021/08/18 00:15:51;;;;;;;14.45;5.80;;;;;;;13.05;77.51;98873.45;124958;1093;64184;-84
2021/08/18 00:18:19;;;;;;;13.57;6.73;;;;;;;13.07;77.59;98858.13;124889;1093;64323;-84
2021/08/18 00:20:46;;;;;;;13.35;5.95;;;;;;;13.11;77.47;98852.42;124845;1093;64303;-84
2021/08/18 00:23:13;;;;;;;15.20;6.63;;;;;;;13.16;77.37;98852.03;124882;1093;64281;-83
2021/08/18 00:25:40;;;;;;;13.47;6.50;;;;;;;13.17;77.35;98849.24;124807;1094;64691;-84
2021/08/18 00:28:08;;;;;;;10.97;5.93;;;;;;;13.18;77.33;98848.26;124906;1093;64287;-84
2021/08/18 00:30:35;;;;;;;10.55;6.00;;;;;;;13.20;77.42;98852.66;124936;1093;64265;-84
2021/08/18 00:33:03;;;;;;;15.63;6.27;;;;;;;13.20;77.47;98850.83;124896;1093;64367;-84
2021/08/18 00:35:30;;;;;;;10.87;5.17;;;;;;;13.21;77.47;98849.84;124852;1093;64277;-84
2021/08/18 00:37:57;;;;;;;11.80;6.07;;;;;;;13.23;77.68;98847.05;124889;1093;64281;-84
2021/08/18 00:40:25;;;;;;;10.27;6.30;;;;;;;13.23;77.48;98863.11;124906;1093;64296;-84
2021/08/18 00:42:52;;;;;;;13.83;6.17;;;;;;;13.23;77.46;98860.44;124816;1093;64299;-84
2021/08/18 00:45:20;;;;;;;14.63;6.30;;;;;;;13.23;77.58;98861.28;124905;1093;64271;-83
2021/08/18 00:47:51;;;;;;;10.70;5.40;;;;;;;13.24;77.54;98867.47;124903;1093;64374;-84
2021/08/18 00:50:27;;;;;;;9.17;4.70;;;;;;;13.24;77.44;98862.13;124938;1093;64261;-84
2021/08/18 00:52:55;;;;;;;9.95;5.30;;;;;;;13.25;77.34;98872.72;124944;1093;64282;-84
2021/08/18 00:55:24;;;;;;;8.70;4.70;;;;;;;13.26;77.59;98877.12;124910;1092;64332;-84
2021/08/18 00:57:53;;;;;;;11.60;4.55;;;;;;;13.31;77.81;98882.11;124899;1093;66103;-84
2021/08/18 01:00:22;;;;;;;8.43;4.23;;;;;;;13.31;77.61;98876.76;125001;1093;64281;-83
2021/08/18 01:02:49;;;;;;;10.13;5.03;;;;;;;13.31;77.63;98877.60;124866;1093;64187;-84
2021/08/18 01:05:18;;;;;;;8.17;4.50;;;;;;;13.33;77.70;98877.49;124869;1093;64265;-84
2021/08/18 01:07:49;;;;;;;7.23;4.73;;;;;;;13.32;77.70;98873.09;124850;1093;64309;-84
2021/08/18 01:10:30;;;;;;;8.90;4.27;;;;;;;13.30;77.64;98875.91;124910;1093;64737;-84
2021/08/18 01:12:57;;;;;;;7.60;3.90;;;;;;;13.28;77.86;98871.66;124872;1093;64303;-84
2021/08/18 01:15:27;;;;;;;5.27;3.40;;;;;;;13.27;77.99;98878.84;124900;1093;64277;-84
2021/08/18 01:17:55;;;;;;;;;;;;;;;13.26;77.88;98870.89;124951;1093;64184;-84
2021/08/18 01:20:27;;;;;;;6.93;3.97;;;;;;;13.27;77.85;98869.94;124854;1093;64389;-84
2021/08/18 01:22:55;;;;;;;6.90;4.60;;;;;;;13.28;77.64;98864.47;124887;1093;64421;-84
2021/08/18 01:25:23;;;;;;;6.60;3.90;;;;;;;13.31;77.75;98861.55;124928;1092;64242;-83
2021/08/18 01:27:54;;;;;;;5.70;4.10;;;;;;;13.32;77.81;98860.59;124885;1093;64349;-84
2021/08/18 01:30:24;;;;;;;6.00;3.80;;;;;;;13.33;77.67;98859.60;124917;1092;64715;-84
2021/08/18 01:33:01;;;;;;;7.53;4.57;;;;;;;13.31;77.60;98860.70;124953;1092;64261;-84
2021/08/18 01:35:31;;;;;;;5.83;3.90;;;;;;;13.31;77.81;98860.70;124917;1093;64322;-84
2021/08/18 01:38:00;;;;;;;8.37;4.33;;;;;;;13.29;77.88;98855.45;124918;1093;64287;-84
2021/08/18 01:40:28;;;;;;;5.25;3.20;;;;;;;13.30;77.71;98848.30;124976;1093;64355;-84
2021/08/18 01:42:55;;;;;;;5.93;3.27;;;;;;;13.30;77.35;98856.33;124919;1093;64193;-84
2021/08/18 01:45:30;;;;;;;8.13;3.60;;;;;;;13.30;77.58;98861.69;124963;1093;64268;-84
2021/08/18 01:48:05;;;;;;;6.85;3.80;;;;;;;13.29;77.44;98859.97;124906;1093;64447;-84
2021/08/18 01:50:32;;;;;;;9.37;4.10;;;;;;;13.29;77.47;98846.58;124873;1093;64392;-83
2021/08/18 01:52:59;;;;;;;6.77;3.70;;;;;;;13.27;77.49;98851.20;124858;1093;64281;-83
2021/08/18 01:55:27;;;;;;;4.03;3.53;;;;;;;13.28;77.46;98850.25;124879;1093;64287;-83
2021/08/18 01:57:57;;;;;;;6.53;3.93;;;;;;;13.24;77.26;98844.23;124924;1093;64830;-84
2021/08/18 02:00:46;;;;;;;5.90;4.13;;;;;;;13.23;77.48;98831.84;124939;1093;64273;-84
2021/08/18 02:03:13;;;;;;;4.27;3.57;;;;;;;13.22;77.49;98839.98;124890;1093;64273;-84
2021/08/18 02:05:41;;;;;;;3.60;2.70;;;;;;;13.20;77.29;98831.25;124884;1092;64281;-83
2021/08/18 02:08:08;;;;;;;4.50;3.87;;;;;;;13.18;77.49;98824.17;124891;1093;64351;-84
2021/08/18 02:10:36;;;;;;;5.03;3.77;;;;;;;13.18;77.37;98831.36;124866;1092;64271;-83
2021/08/18 02:13:03;;;;;;;6.43;4.07;;;;;;;13.18;77.73;98826.00;124905;1093;64359;-84
2021/08/18 02:15:33;;;;;;;7.63;4.40;;;;;;;13.17;77.27;98837.70;124853;1093;64287;-84
2021/08/18 02:18:02;;;;;;;7.63;4.20;;;;;;;13.16;77.49;98844.00;124916;1093;64268;-84
2021/08/18 02:20:32;;;;;;;7.20;3.60;;;;;;;13.13;77.25;98839.75;124985;1093;64277;-84
2021/08/18 02:23:01;;;;;;;7.10;3.93;;;;;;;13.12;77.71;98837.22;124954;1092;64454;-84
2021/08/18 02:25:28;;;;;;;4.53;3.30;;;;;;;13.12;77.51;98838.05;124907;1093;64338;-84
2021/08/18 02:27:55;;;;;;;6.03;3.73;;;;;;;13.12;77.74;98830.03;124926;1094;64268;-83
2021/08/18 02:30:25;;;;;;;6.00;3.83;;;;;;;13.13;77.52;98834.39;124869;1093;64328;-84
2021/08/18 02:32:54;;;;;;;4.97;3.77;;;;;;;13.13;77.59;98839.75;124898;1093;64265;-84
2021/08/18 02:35:21;;;;;;;6.30;4.35;;;;;;;13.14;77.66;98843.30;124924;1093;64491;-84
2021/08/18 02:37:50;;;;;;;6.17;3.93;;;;;;;13.12;77.62;98831.86;124922;1093;64312;-84
2021/08/18 02:40:21;;;;;;;4.00;3.57;;;;;;;13.11;77.80;98833.69;124879;1093;64202;-84
2021/08/18 02:42:50;;;;;;;5.77;3.13;;;;;;;13.09;77.76;98843.66;124932;1093;64244;-84
2021/08/18 02:45:19;;;;;;;7.08;3.00;;;;;;;13.07;77.76;98842.92;124969;1093;64217;-84
2021/08/18 02:47:48;;;;;;;6.20;4.03;;;;;;;13.09;77.78;98840.98;124978;1093;64354;-83
2021/08/18 02:50:18;;;;;;;6.55;4.05;;;;;;;13.10;78.43;98836.48;124865;1093;64216;-84
2021/08/18 02:52:45;;;;;;;5.40;3.75;;;;;;;13.12;78.13;98837.22;124825;1093;64306;-83
2021/08/18 02:55:12;;;;;;;6.23;3.97;;;;;;;13.12;78.06;98843.41;124886;1093;64191;-84
2021/08/18 02:57:40;;;;;;;4.07;3.67;;;;;;;13.11;78.08;98844.39;124876;1093;64279;-83
2021/08/18 03:00:08;;;;;;;5.20;4.50;;;;;;;13.11;78.09;98839.05;124862;1093;64434;-84
2021/08/18 03:02:35;;;;;;;4.23;3.83;;;;;;;13.09;78.11;98846.33;124885;1093;64428;-84
2021/08/18 03:05:03;;;;;;;7.03;3.87;;;;;;;13.09;78.40;98838.30;124909;1093;64319;-84
2021/08/18 03:07:31;;;;;;;6.43;4.43;;;;;;;13.11;78.35;98839.05;124908;1093;64268;-84
2021/08/18 03:09:58;;;;;;;4.93;3.43;;;;;;;13.15;78.24;98835.13;124880;1093;64328;-84
2021/08/18 03:12:25;;;;;;;5.63;3.77;;;;;;;13.19;78.68;98835.72;124896;1093;64425;-84
2021/08/18 03:14:53;;;;;;;6.50;4.00;;;;;;;13.23;78.63;98836.35;124910;1093;64273;-84
2021/08/18 03:17:20;;;;;;;7.03;4.17;;;;;;;13.25;78.74;98829.05;124899;1093;64210;-84
2021/08/18 03:19:47;;;;;;;7.07;5.00;;;;;;;13.25;78.60;98824.55;124932;1093;64326;-84
2021/08/18 03:22:14;;;;;;;4.90;3.87;;;;;;;13.23;78.54;98817.62;124909;1093;64270;-84
2021/08/18 03:24:41;;;;;;;7.57;4.20;;;;;;;13.21;78.75;98819.56;124888;1093;64306;-83
2021/08/18 03:27:09;;;;;;;5.67;4.43;;;;;;;13.17;78.91;98826.99;124903;1093;64316;-84
2021/08/18 03:29:36;;;;;;;5.30;3.50;;;;;;;13.16;78.70;98833.30;124892;1093;64261;-84
2021/08/18 03:32:04;;;;;;;5.50;4.00;;;;;;;13.17;78.78;98829.67;124923;1093;64267;-84
2021/08/18 03:34:31;;;;;;;5.23;3.67;;;;;;;13.17;78.58;98833.19;124876;1093;64267;-84
2021/08/18 03:36:58;;;;;;;6.07;4.60;;;;;;;13.20;78.63;98826.74;124850;1093;64345;-83
2021/08/18 03:39:25;;;;;;;7.03;4.77;;;;;;;13.22;78.83;98829.27;124887;1093;64271;-84
2021/08/18 03:41:52;;;;;;;7.03;4.57;;;;;;;13.24;78.89;98830.01;124827;1093;64260;-85
2021/08/18 03:44:19;;;;;;;6.57;4.83;;;;;;;13.23;78.97;98837.19;124928;1093;64273;-84
2021/08/18 03:46:47;;;;;;;7.13;4.77;;;;;;;13.23;78.95;98847.90;124875;1093;64268;-85
2021/08/18 03:49:14;;;;;;;9.67;4.47;;;;;;;13.21;78.90;98843.64;124904;1093;64530;-84
2021/08/18 03:51:42;;;;;;;7.80;4.05;;;;;;;13.21;79.14;98833.78;124984;1093;64274;-84
2021/08/18 03:54:09;;;;;;;5.35;3.60;;;;;;;13.23;79.09;98839.88;124974;1093;64218;-84
2021/08/18 03:56:36;;;;;;;7.20;5.47;;;;;;;13.25;79.08;98843.28;125309;1093;64276;-83
2021/08/18 03:59:03;;;;;;;7.53;4.73;;;;;;;13.27;78.94;98846.72;125245;1093;64261;-84
2021/08/18 04:01:30;;;;;;;7.80;5.05;;;;;;;13.28;78.78;98845.73;125305;1093;64284;-84
2021/08/18 04:03:57;;;;;;;10.67;5.27;;;;;;;13.30;78.68;98849.15;125052;1093;64188;-84
2021/08/18 04:06:24;;;;;;;7.30;4.83;;;;;;;13.31;78.76;98850.84;124859;1093;64284;-83
2021/08/18 04:08:51;;;;;;;7.30;4.53;;;;;;;13.32;78.67;98849.00;124872;1093;64267;-84
2021/08/18 04:11:18;;;;;;;5.53;4.63;;;;;;;13.33;78.65;98846.22;124863;1093;64830;-84
2021/08/18 04:13:46;;;;;;;7.17;4.33;;;;;;;13.35;78.61;98852.31;124877;1093;64381;-84
2021/08/18 04:16:13;;;;;;;7.73;4.33;;;;;;;13.35;78.54;98856.81;124834;1093;64766;-84
2021/08/18 04:18:40;;;;;;;7.23;4.23;;;;;;;13.39;78.49;98858.25;124865;1093;64253;-84
2021/08/18 04:21:07;;;;;;;8.57;5.10;;;;;;;13.42;78.37;98860.67;124846;1093;64261;-84
2021/08/18 04:23:34;;;;;;;6.47;4.90;;;;;;;13.46;78.32;98851.44;124874;1093;64258;-83
2021/08/18 04:26:01;;;;;;;7.53;4.63;;;;;;;13.48;78.63;98857.52;124863;1092;64261;-83
2021/08/18 04:28:29;;;;;;;8.07;4.90;;;;;;;13.52;78.47;98863.47;124846;1093;64241;-84
2021/08/18 04:30:56;;;;;;;7.30;5.47;;;;;;;13.52;78.18;98858.96;124883;1093;64265;-84
2021/08/18 04:33:23;;;;;;;7.93;5.17;;;;;;;13.56;78.37;98863.11;124853;1093;64278;-84
2021/08/18 04:35:50;;;;;;;7.13;4.87;;;;;;;13.61;78.13;98873.42;124869;1093;64219;-85
2021/08/18 04:38:18;;;;;;;6.63;4.23;;;;;;;13.67;78.44;98861.38;124849;1093;64242;-84
2021/08/18 04:40:45;;;;;;;8.83;4.87;;;;;;;13.74;78.50;98868.76;124964;1093;64271;-84
2021/08/18 04:43:13;;;;;;;10.30;5.10;;;;;;;13.79;78.15;98876.42;124903;1093;64184;-83
2021/08/18 04:45:41;;;;;;;7.50;5.20;;;;;;;13.82;77.79;98868.13;124896;1093;64641;-84
2021/08/18 04:48:09;;;;;;;9.07;5.47;;;;;;;13.84;77.85;98872.39;124849;1093;64264;-83
2021/08/18 04:50:36;;;;;;;8.55;5.70;;;;;;;13.88;78.13;98874.84;124917;1093;64396;-83
2021/08/18 04:53:11;;;;;;;12.83;5.40;;;;;;;13.90;77.69;98870.18;124857;1093;64418;-84
2021/08/18 04:55:39;;;;;;;7.75;4.60;;;;;;;13.91;77.72;98870.06;124895;1093;64294;-84
2021/08/18 04:58:07;;;;;;;7.05;4.50;;;;;;;13.96;77.67;98875.05;124898;1093;64264;-84
2021/08/18 05:00:34;;;;;;;6.53;4.83;;;;;;;14.00;77.66;98868.44;124898;1093;64743;-84
2021/08/18 05:03:02;;;;;;;7.83;5.30;;;;;;;14.02;77.62;98872.70;124863;1093;64450;-84
2021/08/18 05:05:29;;;;;;;8.67;5.13;;;;;;;14.04;77.31;98870.75;124902;1093;64241;-84
2021/08/18 05:07:58;;;;;;;6.73;5.30;;;;;;;14.09;77.60;98878.41;124827;1093;64268;-84
2021/08/18 05:10:26;;;;;;;9.75;5.55;;;;;;;14.15;77.41;98879.73;124902;1093;64216;-83
2021/08/18 05:12:53;;;;;;;8.75;5.85;;;;;;;14.18;77.35;98874.95;124861;1093;64243;-84
2021/08/18 05:15:20;;;;;;;7.93;5.50;;;;;;;14.22;77.47;98879.09;124884;1093;64224;-84
2021/08/18 05:17:47;;;;;;;8.73;4.47;;;;;;;14.28;77.59;98880.39;124845;1093;64438;-84
2021/08/18 05:20:15;;;;;;;9.37;5.03;;;;;;;14.31;77.25;98880.13;124913;1093;64264;-84
2021/08/18 05:22:44;;;;;;;6.67;4.97;;;;;;;14.38;77.33;98884.01;124866;1093;64259;-83
2021/08/18 05:25:13;;;;;;;10.80;5.47;;;;;;;14.45;77.39;98895.89;124952;1093;64298;-84
2021/08/18 05:27:41;;;;;;;8.45;5.50;;;;;;;14.49;77.27;98889.30;124866;1093;64287;-84
2021/08/18 05:30:10;;;;;;;8.77;6.00;;;;;;;14.54;77.45;98894.31;124929;1093;64318;-84
2021/08/18 05:32:39;;;;;;;8.63;5.25;;;;;;;14.62;77.47;98897.19;124978;1093;64306;-84
2021/08/18 05:35:09;;;;;;;10.10;5.83;;;;;;;14.69;77.40;98898.38;125039;1093;64242;-84
2021/08/18 05:37:37;;;;;;;11.17;5.13;;;;;;;14.74;77.03;98897.96;124910;1093;64188;-84
2021/08/18 05:40:05;;;;;;;11.20;5.90;;;;;;;14.80;77.11;98902.83;124923;1093;64331;-84
2021/08/18 05:42:34;;;;;;;7.85;5.20;;;;;;;14.87;76.35;98897.77;124914;1092;64385;-84
2021/08/18 05:45:01;;;;;;;9.30;5.53;;;;;;;14.95;76.46;98903.31;124899;1093;64273;-84
2021/08/18 05:47:29;;;;;;;6.83;5.53;;;;;;;14.91;75.72;98897.38;124942;1093;64279;-84
2021/08/18 05:49:56;;;;;;;11.43;6.77;;;;;;;14.91;76.30;98897.38;124905;1094;64277;-84
2021/08/18 05:52:23;;;;;;;9.57;6.63;;;;;;;14.90;75.61;98909.10;124941;1093;64220;-84
2021/08/18 05:54:50;;;;;;;7.37;5.43;;;;;;;14.89;75.59;98903.85;124873;1093;64337;-84
2021/08/18 05:57:17;;;;;;;8.27;5.50;;;;;;;14.90;75.58;98909.10;124910;1093;64287;-85
2021/08/18 05:59:45;;;;;;;8.10;5.47;;;;;;;14.93;75.30;98908.83;124899;1093;64278;-84
2021/08/18 06:02:12;;;;;;;7.40;5.47;;;;;;;15.00;75.42;98905.61;124910;1093;64271;-84
2021/08/18 06:04:39;;;;;;;9.70;6.10;;;;;;;15.04;75.33;98905.22;124860;1093;64354;-83
2021/08/18 06:07:06;;;;;;;9.83;5.97;;;;;;;15.10;75.02;98911.88;124955;1093;64364;-84
2021/08/18 06:09:33;;;;;;;10.90;6.60;;;;;;;15.14;75.06;98902.59;124901;1093;64268;-83
2021/08/18 06:12:00;;;;;;;7.43;5.40;;;;;;;15.17;74.64;98907.69;124898;1093;64210;-83
2021/08/18 06:14:27;;;;;;;7.37;4.93;;;;;;;15.21;74.66;98909.10;124858;1093;64300;-83
2021/08/18 06:16:55;;;;;;;8.10;5.80;;;;;;;15.25;74.26;98913.23;124909;1093;64242;-83
2021/08/18 06:19:22;;;;;;;12.33;6.03;;;;;;;15.31;74.52;98912.68;124885;1093;64287;-83
2021/08/18 06:21:49;;;;;;;10.80;5.80;;;;;;;15.34;74.14;98912.41;124847;1093;64264;-83
2021/08/18 06:24:30;;;;;;;9.83;5.83;;;;;;;15.38;74.14;98904.95;124866;1093;64239;-83
2021/08/18 06:26:57;;;;;;;7.83;6.03;;;;;;;15.41;73.97;98914.58;124924;1093;64242;-83
2021/08/18 06:29:28;;;;;;;6.30;5.30;;;;;;;15.45;74.09;98908.77;124857;1093;64411;-83
2021/08/18 06:31:56;;;;;;;7.70;5.13;;;;;;;15.52;73.55;98906.41;124862;1093;64300;-83
2021/08/18 06:34:23;;;;;;;7.17;5.07;;;;;;;15.61;73.12;98907.41;124906;1093;64214;-83
2021/08/18 06:36:50;;;;;;;7.57;5.30;;;;;;;15.75;73.27;98910.61;124913;1092;64361;-83
2021/08/18 06:39:17;;;;;;;6.53;5.83;;;;;;;15.85;72.94;98899.02;124908;1093;64287;-82
2021/08/18 06:41:45;;;;;;;7.03;5.73;;;;;;;15.95;72.79;98900.73;124870;1093;64210;-83
2021/08/18 06:44:12;;;;;;;7.93;5.43;;;;;;;16.04;72.40;98907.13;124866;1093;64268;-82
2021/08/18 06:46:39;;;;;;;10.57;5.70;;;;;;;16.12;72.61;98901.91;124877;1093;64283;-82
2021/08/18 06:49:06;;;;;;;7.40;5.43;;;;;;;16.19;71.98;98896.80;124860;1093;64271;-82
2021/08/18 06:51:33;;;;;;;7.73;5.50;;;;;;;16.27;71.76;98902.31;124915;1093;64383;-82
2021/08/18 06:54:00;;;;;;;7.10;5.50;;;;;;;16.35;71.47;98896.23;124944;1093;64428;-82
2021/08/18 06:56:27;;;;;;;8.50;5.20;;;;;;;16.41;71.44;98895.69;124898;1093;64319;-83
2021/08/18 06:58:54;;;;;;;10.87;6.13;;;;;;;16.50;71.31;98888.59;124973;1093;64299;-83
2021/08/18 07:01:22;;;;;;;9.67;5.83;;;;;;;16.58;70.32;98894.95;124934;1093;64239;-83
2021/08/18 07:03:49;;;;;;;8.07;6.43;;;;;;;16.63;71.03;98887.30;124938;1093;64297;-82
2021/08/18 07:06:16;;;;;;;7.53;5.67;;;;;;;16.76;70.06;98887.00;124881;1093;64517;-82
2021/08/18 07:08:44;;;;;;;7.90;6.00;;;;;;;16.82;70.29;98883.75;124888;1093;64268;-83
2021/08/18 07:11:11;;;;;;;7.23;5.40;;;;;;;16.94;70.50;98884.44;124861;1093;64294;-82
2021/08/18 07:13:39;;;;;;;7.70;6.15;;;;;;;17.07;69.60;98882.27;124864;1093;64300;-82
2021/08/18 07:16:08;;;;;;;7.03;5.90;;;;;;;17.18;69.20;98883.94;124876;1093;64238;-82
2021/08/18 07:18:35;;;;;;;8.03;6.20;;;;;;;17.22;68.95;98885.36;124989;1092;64331;-88
2021/08/18 07:24:09;;;;;;;8.90;5.90;;;;;;;17.85;68.78;98895.42;124878;1093;64319;-91
2021/08/18 07:26:36;;;;;;;8.77;6.47;;;;;;;18.24;68.44;98881.64;124818;1093;64351;-91
2021/08/18 07:29:03;;;;;;;10.13;6.47;;;;;;;18.55;67.99;98881.24;124766;1093;64291;-91
2021/08/18 07:31:30;;;;;;;6.80;6.10;;;;;;;18.74;67.23;98897.24;124697;1096;64408;-87
2021/08/18 07:33:58;;;;;;;9.37;6.77;;;;;;;18.73;66.19;98894.72;124785;1093;64342;-93
2021/08/18 07:36:25;;;;;;;9.37;6.57;;;;;;;18.82;65.66;98886.53;124718;1094;64277;-81
2021/08/18 07:38:53;;;;;;;7.93;6.47;;;;;;;18.91;65.70;98886.62;124774;1093;64232;-81
2021/08/18 07:41:20;;;;;;;7.97;5.90;;;;;;;18.93;65.81;98889.98;124756;1093;64281;-81
2021/08/18 07:43:47;;;;;;;7.60;6.00;;;;;;;18.98;64.95;98890.36;124718;1093;64409;-81
2021/08/18 07:46:14;;;;;;;7.10;5.90;;;;;;;19.00;64.36;98889.19;124712;1093;64280;-81
2021/08/18 07:48:41;;;;;;;7.27;5.93;;;;;;;19.08;64.79;98889.23;124790;1093;64381;-82
2021/08/18 07:51:09;;;;;;;7.70;6.20;;;;;;;19.16;64.47;98882.20;124754;1092;64319;-82
2021/08/18 07:53:41;;;;;;;8.03;6.03;;;;;;;19.09;64.34;98882.01;124711;1093;64303;-83
2021/08/18 08:04:53;;;;;;;8.83;7.20;;;;;;;18.99;64.46;98883.97;125397;1094;64226;-95
2021/08/18 08:07:47;;;;;;;10.20;6.80;;;;;;;18.81;64.24;98876.75;125747;1093;64204;-93
2021/08/18 08:10:15;;;;;;;8.20;6.00;;;;;;;18.64;64.39;98878.47;125344;1093;64342;-92
2021/08/18 08:12:43;;;;;;;8.55;6.40;;;;;;;18.63;64.99;98874.05;124873;1093;64364;-91
2021/08/18 08:15:11;;;;;;;9.00;6.30;;;;;;;18.83;65.75;98871.20;124648;1093;64341;-90
2021/08/18 08:17:38;;;;;;;7.30;6.47;;;;;;;19.03;65.41;98866.42;124583;1093;64350;-93
2021/08/18 08:25:25;;;;;;;9.93;6.77;;;;;;;19.43;63.33;98873.03;117461;1093;64271;-83
2021/08/18 08:27:53;;;;;;;7.75;6.95;;;;;;;19.37;63.15;98874.53;124636;1093;64287;-84
2021/08/18 08:30:20;;;;;;;8.40;6.73;;;;;;;19.37;63.03;98868.29;124699;1094;64335;-83
2021/08/18 08:32:49;;;;;;;8.20;6.43;;;;;;;19.42;62.67;98871.35;124719;1093;64290;-83
2021/08/18 08:35:17;;;;;;;7.00;6.30;;;;;;;19.56;62.78;98872.59;124766;1093;64244;-83
2021/08/18 08:37:44;;;;;;;10.67;7.20;;;;;;;19.66;63.20;98866.06;124749;1093;64456;-83
2021/08/18 08:40:13;;;;;;;7.77;6.73;;;;;;;19.80;61.97;98861.03;124720;1093;64290;-83
2021/08/18 08:42:41;;;;;;;7.83;6.97;;;;;;;19.86;62.44;98868.51;124759;1093;64274;-83
2021/08/18 08:45:10;;;;;;;7.83;6.83;;;;;;;19.91;61.82;98861.59;124692;1093;64242;-83
2021/08/18 08:47:38;;;;;;;7.97;6.60;;;;;;;19.79;61.78;98860.19;124774;1093;64226;-84
2021/08/18 08:50:09;;;;;;;7.87;7.07;;;;;;;19.54;61.66;98864.66;124666;1094;65585;-83
2021/08/18 08:52:36;;;;;;;7.00;6.10;;;;;;;19.33;61.66;98856.13;124718;1093;64275;-83
2021/08/18 08:55:05;;;;;;;9.57;6.57;;;;;;;19.22;62.35;98852.70;124760;1093;64284;-83
2021/08/18 08:57:54;;;;;;;7.87;6.40;;;;;;;19.37;62.34;98855.62;124736;1093;64245;-84
2021/08/18 09:00:22;;;;;;;9.60;6.80;;;;;;;19.57;62.05;98858.08;124671;1093;64297;-83
2021/08/18 09:03:08;;;;;;;10.30;7.23;;;;;;;19.88;62.04;98842.99;124674;1093;64360;-83
2021/08/18 09:05:36;;;;;;;10.70;7.15;;;;;;;20.08;59.95;98850.79;124868;1093;64294;-84
2021/08/18 09:08:08;;;;;;;8.03;7.03;;;;;;;19.98;59.88;98852.80;124801;1093;64214;-83
2021/08/18 09:10:35;;;;;;;10.80;7.87;;;;;;;20.12;59.79;98846.75;124866;1093;64290;-84
2021/08/18 09:13:14;;;;;;;10.50;7.50;;;;;;;20.40;59.85;98849.96;124669;1093;64226;-84
2021/08/18 09:15:43;;;;;;;8.53;6.97;;;;;;;20.83;59.88;98835.25;124752;1093;64274;-84
2021/08/18 09:18:10;;;;;;;8.00;7.00;;;;;;;21.12;57.85;98838.41;124756;1093;64276;-84
2021/08/18 09:20:40;;;;;;;8.93;7.00;;;;;;;21.32;58.52;98842.38;124738;1093;64280;-84
2021/08/18 09:23:12;;;;;;;8.37;7.30;;;;;;;21.46;56.73;98846.28;124880;1093;64219;-84
2021/08/18 09:25:41;;;;;;;8.37;7.10;;;;;;;21.21;56.04;98845.47;124699;1093;64451;-84
2021/08/18 09:28:08;;;;;;;8.05;6.85;;;;;;;20.85;55.17;98842.34;124844;1093;64223;-83
2021/08/18 09:30:42;;;;;;;13.47;7.93;;;;;;;20.76;56.06;98841.52;124653;1093;64271;-86
2021/08/18 09:33:17;;;;;;;9.10;7.07;;;;;;;20.88;55.61;98845.58;124740;1093;64248;-85
2021/08/18 09:35:53;;;;;;;10.40;7.00;;;;;;;21.06;54.91;98831.78;124726;1093;64287;-85
2021/08/18 09:38:24;;;;;;;9.10;7.00;;;;;;;21.10;54.98;98841.27;124725;1093;64447;-85
2021/08/18 09:40:52;;;;;;;9.95;7.10;;;;;;;21.27;55.24;98839.34;124792;1093;64524;-84
2021/08/18 09:43:25;;;;;;;9.90;7.05;;;;;;;21.26;54.38;98837.66;124725;1093;64220;-85
2021/08/18 09:45:57;;;;;;;15.63;9.17;;;;;;;21.40;55.09;98842.38;124757;1093;64226;-85
2021/08/18 09:48:26;;;;;;;11.17;8.70;;;;;;;21.43;55.06;98836.63;124800;1093;64279;-84
2021/08/18 09:51:02;;;;;;;13.40;6.63;;;;;;;21.63;54.58;98834.31;124825;1092;64277;-85
2021/08/18 09:53:31;;;;;;;8.00;7.20;;;;;;;21.97;55.22;98830.39;124836;1092;64433;-84
2021/08/18 09:56:05;;;;;;;11.28;7.30;;;;;;;22.19;54.42;98820.58;124728;1093;64274;-85
2021/08/18 09:58:34;;;;;;;10.03;7.60;;;;;;;22.28;53.65;98824.09;124727;1093;64756;-85
2021/08/18 10:01:05;;;;;;;18.87;9.33;;;;;;;22.31;54.47;98816.42;124732;1093;64274;-85
2021/08/18 10:03:32;;;;;;;9.47;6.67;;;;;;;22.41;53.51;98813.47;124670;1093;64294;-84
2021/08/18 10:06:00;;;;;;;9.70;7.00;;;;;;;22.41;53.37;98818.03;124689;1093;64364;-85
2021/08/18 10:08:29;;;;;;;7.70;6.30;;;;;;;22.34;52.98;98816.05;124690;1093;64279;-85
2021/08/18 10:10:57;;;;;;;9.20;7.00;;;;;;;22.41;54.26;98815.31;124798;1093;64277;-84
2021/08/18 10:13:24;;;;;;;8.73;6.43;;;;;;;22.52;53.67;98812.18;124789;1092;64226;-84
2021/08/18 10:15:53;;;;;;;6.40;5.80;;;;;;;22.57;52.25;98817.91;124674;1093;64357;-85
2021/08/18 10:18:34;;;;;;;7.10;6.23;;;;;;;22.49;52.70;98807.13;124764;1093;64194;-84
2021/08/18 10:21:06;;;;;;;7.33;6.50;;;;;;;22.61;51.88;98813.78;124698;1093;64300;-85
2021/08/18 10:23:46;;;;;;;6.90;6.20;;;;;;;22.61;48.65;98813.78;124816;1093;64207;-85
2021/08/18 10:26:35;;;;;;;11.20;6.07;;;;;;;22.47;50.25;98803.73;124795;1093;64340;-85
2021/08/18 10:29:19;;;;;;;7.07;5.93;;;;;;;22.52;50.50;98804.03;124750;1093;64245;-84
2021/08/18 10:31:47;;;;;;;7.87;5.40;;;;;;;22.33;50.12;98802.68;124727;1093;64580;-85
2021/08/18 10:34:26;;;;;;;6.20;5.60;;;;;;;22.43;49.71;98796.97;124739;1093;64307;-85
2021/08/18 10:37:00;;;;;;;7.97;5.93;;;;;;;22.56;48.67;98802.62;124760;1093;64277;-85
2021/08/18 10:39:30;;;;;;;6.63;5.23;;;;;;;22.48;48.92;98803.53;124656;1093;64615;-85
2021/08/18 10:41:58;;;;;;;;;;;;;;;22.32;48.98;98801.81;124796;1094;64239;-84
2021/08/18 10:44:32;;;;;;;6.37;5.13;;;;;;;21.79;48.58;98799.98;124768;1093;64276;-84
2021/08/18 10:47:20;;;;;;;5.27;4.63;;;;;;;21.44;49.20;98799.50;124707;1093;64251;-84
2021/08/18 10:49:56;;;;;;;7.17;4.60;;;;;;;21.21;49.50;98805.66;124804;1093;64268;-84
2021/08/18 10:52:29;;;;;;;6.70;5.50;;;;;;;20.96;50.06;98809.49;124702;1093;64386;-85
2021/08/18 10:55:08;;;;;;;6.07;4.57;;;;;;;21.12;51.75;98805.89;124770;1093;64279;-85
2021/08/18 10:57:38;;;;;;;5.10;4.60;;;;;;;21.02;50.46;98798.79;124797;1093;64310;-84
2021/08/18 11:00:39;;;;;;;4.83;4.43;;;;;;;20.91;50.74;98801.88;124787;1093;64214;-84
2021/08/18 11:03:26;;;;;;;6.40;4.60;;;;;;;21.11;52.18;98796.89;124734;1093;64290;-84
2021/08/18 11:05:54;;;;;;;5.10;4.60;;;;;;;21.43;52.45;98795.95;124760;1093;64307;-84
2021/08/18 11:08:25;;;;;;;4.93;4.43;;;;;;;21.65;51.94;98798.89;124719;1093;64453;-84
2021/08/18 11:10:53;;;;;;;6.40;4.40;;;;;;;21.84;50.53;98792.99;124777;1093;64403;-84
2021/08/18 11:13:43;;;;;;;4.97;3.90;;;;;;;22.03;49.89;98798.97;124687;1093;64294;-86
2021/08/18 11:16:13;;;;;;;5.87;3.97;;;;;;;22.25;49.92;98790.02;124665;1093;64302;-85
2021/08/18 11:18:46;;;;;;;4.53;4.13;;;;;;;22.50;49.94;98789.78;124820;1093;64290;-86
2021/08/18 11:21:18;;;;;;;4.90;4.40;;;;;;;22.74;49.37;98783.27;124765;1092;64405;-85
2021/08/18 11:23:51;;;;;;;5.83;4.87;;;;;;;22.91;49.71;98782.06;124737;1093;64278;-85
2021/08/18 11:26:22;;;;;;;5.07;3.67;;;;;;;22.93;48.03;98792.73;124756;1093;64275;-84
2021/08/18 11:29:15;;;;;;;4.93;4.20;;;;;;;22.58;47.00;98786.98;124771;1093;64217;-85
2021/08/18 11:31:45;;;;;;;5.00;4.40;;;;;;;22.34;48.08;98786.19;124721;1091;64287;-85
2021/08/18 11:34:31;;;;;;;4.47;4.07;;;;;;;22.24;47.59;98787.47;124774;1093;64303;-85
2021/08/18 11:37:04;;;;;;;5.10;4.60;;;;;;;22.11;48.47;98794.31;124737;1093;64549;-85
2021/08/18 11:39:37;;;;;;;4.57;4.10;;;;;;;22.14;48.42;98787.67;124753;1093;64293;-85
2021/08/18 11:42:11;;;;;;;6.03;4.50;;;;;;;22.10;49.16;98791.80;124748;1093;64351;-84
2021/08/18 11:44:41;;;;;;;5.40;4.30;;;;;;;21.75;47.94;98795.92;124738;1093;64290;-85
2021/08/18 11:47:14;;;;;;;9.73;4.88;;;;;;;21.27;49.23;98798.69;124788;1093;64324;-84
2021/08/18 11:49:45;;;;;;;9.77;5.70;;;;;;;20.95;49.68;98800.49;124775;1093;64361;-85
2021/08/18 11:52:18;;;;;;;6.87;4.80;;;;;;;20.93;49.86;98788.14;124721;1093;64244;-84